N352A KJFK-KMIA
Flight info
| Callsign | N352A |
|---|---|
| Flight time | 2h 38m |
| Altitude | 43000 |
| Route | WAVEY EMJAY Q167 KALDA Q101 SKARP Y313 HOAGG BNFSH3 |
| Aircraft | C750/M-SBDE3FGHRWXY/S |
Departure
| Time | 2026-05-04 09:17 |
|---|---|
| Airport | John F. Kennedy International Airport (KJFK) |
Arrival
| Time | 2026-05-04 11:56 |
|---|---|
| Airport | Miami International Airport (KMIA) |
| Time | Latitude | Longitude | Altitude | Speed | Heading |
|---|---|---|---|---|---|
| 2026-05-04 08:43 | 40.64899 | -73.81049 | 21 ft | 0 kts | 204° |
| 2026-05-04 08:54 | 40.64953 | -73.81017 | 19 ft | 0 kts | 204° |
| 2026-05-04 09:01 | 40.64941 | -73.81079 | 19 ft | 3 kts | 291° |
| 2026-05-04 09:01 | 40.64952 | -73.81106 | 21 ft | 4 kts | 300° |
| 2026-05-04 09:01 | 40.64972 | -73.81148 | 18 ft | 7 kts | 301° |
| 2026-05-04 09:01 | 40.64963 | -73.81189 | 19 ft | 3 kts | 230° |
| 2026-05-04 09:02 | 40.64947 | -73.81204 | 19 ft | 2 kts | 214° |
| 2026-05-04 09:02 | 40.64935 | -73.81214 | 20 ft | 2 kts | 209° |
| 2026-05-04 09:02 | 40.64920 | -73.81221 | 20 ft | 2 kts | 193° |
| 2026-05-04 09:02 | 40.64903 | -73.81215 | 20 ft | 3 kts | 149° |
| 2026-05-04 09:03 | 40.64888 | -73.81185 | 21 ft | 5 kts | 120° |
| 2026-05-04 09:03 | 40.64866 | -73.81137 | 21 ft | 8 kts | 121° |
| 2026-05-04 09:03 | 40.64833 | -73.81064 | 21 ft | 11 kts | 120° |
| 2026-05-04 09:03 | 40.64792 | -73.80973 | 22 ft | 11 kts | 121° |
| 2026-05-04 09:04 | 40.64757 | -73.80896 | 22 ft | 9 kts | 121° |
| 2026-05-04 09:04 | 40.64724 | -73.80825 | 21 ft | 9 kts | 121° |
| 2026-05-04 09:04 | 40.64689 | -73.80747 | 19 ft | 10 kts | 120° |
| 2026-05-04 09:04 | 40.64652 | -73.80666 | 19 ft | 10 kts | 121° |
| 2026-05-04 09:05 | 40.64619 | -73.80592 | 18 ft | 9 kts | 121° |
| 2026-05-04 09:05 | 40.64586 | -73.80520 | 17 ft | 10 kts | 121° |
| 2026-05-04 09:05 | 40.64551 | -73.80442 | 16 ft | 10 kts | 120° |
| 2026-05-04 09:05 | 40.64518 | -73.80368 | 16 ft | 8 kts | 121° |
| 2026-05-04 09:06 | 40.64499 | -73.80329 | 17 ft | 7 kts | 121° |
| 2026-05-04 09:07 | 40.64227 | -73.79811 | 22 ft | 8 kts | 136° |
| 2026-05-04 09:08 | 40.64195 | -73.79763 | 22 ft | 6 kts | 127° |
| 2026-05-04 09:08 | 40.64177 | -73.79724 | 24 ft | 5 kts | 120° |
| 2026-05-04 09:08 | 40.64153 | -73.79670 | 23 ft | 8 kts | 122° |
| 2026-05-04 09:08 | 40.64109 | -73.79611 | 21 ft | 10 kts | 157° |
| 2026-05-04 09:09 | 40.64040 | -73.79576 | 19 ft | 12 kts | 150° |
| 2026-05-04 09:09 | 40.63981 | -73.79503 | 19 ft | 12 kts | 126° |
| 2026-05-04 09:09 | 40.63938 | -73.79410 | 18 ft | 12 kts | 121° |
| 2026-05-04 09:09 | 40.63892 | -73.79309 | 17 ft | 14 kts | 120° |
| 2026-05-04 09:10 | 40.63847 | -73.79209 | 18 ft | 11 kts | 121° |
| 2026-05-04 09:10 | 40.63811 | -73.79130 | 19 ft | 9 kts | 121° |
| 2026-05-04 09:10 | 40.63780 | -73.79062 | 19 ft | 8 kts | 121° |
| 2026-05-04 09:10 | 40.63753 | -73.79001 | 19 ft | 7 kts | 120° |
| 2026-05-04 09:11 | 40.63731 | -73.78953 | 20 ft | 6 kts | 120° |
| 2026-05-04 09:11 | 40.63710 | -73.78906 | 22 ft | 7 kts | 121° |
| 2026-05-04 09:11 | 40.63678 | -73.78836 | 23 ft | 13 kts | 121° |
| 2026-05-04 09:11 | 40.63618 | -73.78704 | 23 ft | 17 kts | 121° |
| 2026-05-04 09:12 | 40.63560 | -73.78576 | 24 ft | 15 kts | 121° |
| 2026-05-04 09:12 | 40.63510 | -73.78465 | 23 ft | 14 kts | 121° |
| 2026-05-04 09:14 | 40.63320 | -73.78327 | 19 ft | 0 kts | 299° |
| 2026-05-04 09:14 | 40.63321 | -73.78330 | 19 ft | 1 kts | 299° |
| 2026-05-04 09:14 | 40.63323 | -73.78335 | 20 ft | 1 kts | 299° |
| 2026-05-04 09:14 | 40.63326 | -73.78341 | 21 ft | 1 kts | 300° |
| 2026-05-04 09:15 | 40.63330 | -73.78350 | 20 ft | 1 kts | 300° |
| 2026-05-04 09:15 | 40.63336 | -73.78363 | 19 ft | 2 kts | 300° |
| 2026-05-04 09:15 | 40.63348 | -73.78389 | 18 ft | 9 kts | 301° |
| 2026-05-04 09:15 | 40.63517 | -73.78760 | 22 ft | 98 kts | 301° |
| 2026-05-04 09:17 | 40.59778 | -73.88419 | 3165 ft | 287 kts | 191° |
| 2026-05-04 09:18 | 40.57895 | -73.88007 | 2920 ft | 266 kts | 163° |
| 2026-05-04 09:18 | 40.56263 | -73.87014 | 2786 ft | 251 kts | 160° |
| 2026-05-04 09:18 | 40.54715 | -73.86073 | 2636 ft | 240 kts | 162° |
| 2026-05-04 09:18 | 40.53143 | -73.85531 | 2438 ft | 238 kts | 180° |
| 2026-05-04 09:19 | 40.51424 | -73.85357 | 2490 ft | 259 kts | 181° |
| 2026-05-04 09:19 | 40.49642 | -73.85074 | 2470 ft | 260 kts | 173° |
| 2026-05-04 09:19 | 40.48000 | -73.83979 | 2412 ft | 269 kts | 146° |
| 2026-05-04 09:19 | 40.46769 | -73.82123 | 1760 ft | 275 kts | 129° |
| 2026-05-04 09:20 | 40.45702 | -73.80044 | 1280 ft | 270 kts | 128° |
| 2026-05-04 09:20 | 40.44651 | -73.78070 | 1089 ft | 252 kts | 130° |
| 2026-05-04 09:20 | 40.43728 | -73.76270 | 1410 ft | 238 kts | 126° |
| 2026-05-04 09:20 | 40.42751 | -73.74338 | 1718 ft | 268 kts | 131° |
| 2026-05-04 09:21 | 40.41579 | -73.72446 | 2180 ft | 265 kts | 134° |
| 2026-05-04 09:21 | 40.40438 | -73.70490 | 2858 ft | 273 kts | 129° |
| 2026-05-04 09:21 | 40.39356 | -73.68431 | 3560 ft | 276 kts | 128° |
| 2026-05-04 09:21 | 40.38267 | -73.66386 | 4295 ft | 277 kts | 129° |
| 2026-05-04 09:22 | 40.37134 | -73.64333 | 5062 ft | 280 kts | 129° |
| 2026-05-04 09:22 | 40.35982 | -73.62247 | 5834 ft | 284 kts | 129° |
| 2026-05-04 09:22 | 40.34827 | -73.60129 | 6603 ft | 287 kts | 129° |
| 2026-05-04 09:22 | 40.33655 | -73.57985 | 7392 ft | 289 kts | 129° |
| 2026-05-04 09:23 | 40.32473 | -73.55832 | 8186 ft | 293 kts | 129° |
| 2026-05-04 09:23 | 40.31278 | -73.53655 | 9002 ft | 295 kts | 129° |
| 2026-05-04 09:23 | 40.30073 | -73.51459 | 9840 ft | 298 kts | 129° |
| 2026-05-04 09:23 | 40.28858 | -73.49249 | 10622 ft | 302 kts | 129° |
| 2026-05-04 09:25 | 40.18671 | -73.34965 | 16194 ft | 313 kts | 149° |
| 2026-05-04 09:25 | 40.16903 | -73.33287 | 17016 ft | 315 kts | 149° |
| 2026-05-04 09:26 | 40.15135 | -73.31627 | 17838 ft | 318 kts | 149° |
| 2026-05-04 09:26 | 40.13325 | -73.29940 | 18627 ft | 320 kts | 150° |
| 2026-05-04 09:26 | 40.11375 | -73.28596 | 19250 ft | 314 kts | 170° |
| 2026-05-04 09:26 | 40.09246 | -73.28292 | 19933 ft | 305 kts | 191° |
| 2026-05-04 09:27 | 40.07235 | -73.28943 | 20676 ft | 294 kts | 211° |
| 2026-05-04 09:27 | 40.05560 | -73.30373 | 21482 ft | 284 kts | 226° |
| 2026-05-04 09:27 | 40.04066 | -73.32049 | 22372 ft | 282 kts | 226° |
| 2026-05-04 09:27 | 40.02576 | -73.33714 | 23248 ft | 281 kts | 227° |
| 2026-05-04 09:28 | 40.01093 | -73.35374 | 24035 ft | 281 kts | 227° |
| 2026-05-04 09:28 | 39.99615 | -73.37029 | 24756 ft | 280 kts | 227° |
| 2026-05-04 09:28 | 39.98140 | -73.38679 | 25492 ft | 279 kts | 227° |
| 2026-05-04 09:28 | 39.96669 | -73.40323 | 26245 ft | 278 kts | 227° |
| 2026-05-04 09:29 | 39.95207 | -73.41956 | 27012 ft | 277 kts | 227° |
| 2026-05-04 09:29 | 39.93747 | -73.43585 | 27790 ft | 275 kts | 228° |
| 2026-05-04 09:29 | 39.92295 | -73.45205 | 28575 ft | 273 kts | 228° |
| 2026-05-04 09:29 | 39.90861 | -73.46802 | 29417 ft | 270 kts | 228° |
| 2026-05-04 09:30 | 39.89436 | -73.48390 | 30247 ft | 268 kts | 229° |
| 2026-05-04 09:30 | 39.88049 | -73.49935 | 30939 ft | 265 kts | 229° |
| 2026-05-04 09:30 | 39.86639 | -73.51504 | 31650 ft | 262 kts | 229° |
| 2026-05-04 09:30 | 39.85276 | -73.53021 | 32338 ft | 260 kts | 229° |
| 2026-05-04 09:31 | 39.83910 | -73.54541 | 33024 ft | 257 kts | 229° |
| 2026-05-04 09:31 | 39.82557 | -73.56049 | 33709 ft | 255 kts | 230° |
| 2026-05-04 09:31 | 39.81212 | -73.57550 | 34336 ft | 254 kts | 230° |
| 2026-05-04 09:31 | 39.79874 | -73.59040 | 34859 ft | 253 kts | 229° |
| 2026-05-04 09:32 | 39.78535 | -73.60531 | 35347 ft | 254 kts | 229° |
| 2026-05-04 09:32 | 39.77190 | -73.62028 | 35798 ft | 255 kts | 229° |
| 2026-05-04 09:34 | 39.67403 | -73.72889 | 38681 ft | 275 kts | 226° |
| 2026-05-04 09:34 | 39.65936 | -73.74512 | 38996 ft | 279 kts | 226° |
| 2026-05-04 09:34 | 39.64453 | -73.76153 | 39316 ft | 281 kts | 226° |
| 2026-05-04 09:34 | 39.62959 | -73.77805 | 39648 ft | 283 kts | 226° |
| 2026-05-04 09:35 | 39.61454 | -73.79469 | 39981 ft | 285 kts | 226° |
| 2026-05-04 09:35 | 39.59939 | -73.81142 | 40325 ft | 287 kts | 226° |
| 2026-05-04 09:35 | 39.58414 | -73.82825 | 40680 ft | 289 kts | 226° |
| 2026-05-04 09:35 | 39.56883 | -73.84514 | 41029 ft | 290 kts | 226° |
| 2026-05-04 09:37 | 39.45936 | -73.96548 | 43067 ft | 310 kts | 225° |
| 2026-05-04 09:37 | 39.44267 | -73.98392 | 43076 ft | 322 kts | 225° |
| 2026-05-04 09:38 | 39.40760 | -74.02290 | 43086 ft | 344 kts | 225° |
| 2026-05-04 09:38 | 39.37033 | -74.06459 | 43080 ft | 365 kts | 225° |
| 2026-05-04 09:39 | 39.33100 | -74.10880 | 43096 ft | 385 kts | 225° |
| 2026-05-04 09:39 | 39.28968 | -74.15545 | 43092 ft | 404 kts | 225° |
| 2026-05-04 09:40 | 39.24647 | -74.20438 | 43094 ft | 422 kts | 225° |
| 2026-05-04 09:40 | 39.20151 | -74.25541 | 43099 ft | 439 kts | 225° |
| 2026-05-04 09:42 | 39.00829 | -74.47521 | 43095 ft | 479 kts | 225° |
| 2026-05-04 09:43 | 38.95851 | -74.53169 | 43094 ft | 480 kts | 225° |
| 2026-05-04 09:43 | 38.91651 | -74.57922 | 43097 ft | 480 kts | 225° |
| 2026-05-04 09:44 | 38.85821 | -74.64498 | 43103 ft | 480 kts | 225° |
| 2026-05-04 09:46 | 38.64904 | -74.85735 | 43096 ft | 478 kts | 225° |
| 2026-05-04 09:46 | 38.59715 | -74.91113 | 43097 ft | 481 kts | 221° |
| 2026-05-04 09:47 | 38.54530 | -74.96468 | 43093 ft | 479 kts | 223° |
| 2026-05-04 09:49 | 38.34467 | -75.16732 | 43111 ft | 481 kts | 220° |
| 2026-05-04 09:51 | 38.14799 | -75.35325 | 43094 ft | 478 kts | 220° |
| 2026-05-04 09:51 | 38.09443 | -75.40369 | 43094 ft | 480 kts | 220° |
| 2026-05-04 09:52 | 38.04978 | -75.44548 | 43099 ft | 482 kts | 219° |
| 2026-05-04 09:52 | 37.99428 | -75.49387 | 43102 ft | 483 kts | 219° |
| 2026-05-04 09:53 | 37.93933 | -75.54181 | 43115 ft | 477 kts | 219° |
| 2026-05-04 09:53 | 37.88231 | -75.58574 | 43112 ft | 486 kts | 210° |
| 2026-05-04 09:54 | 37.81726 | -75.61197 | 43106 ft | 497 kts | 196° |
| 2026-05-04 09:54 | 37.74789 | -75.61673 | 43107 ft | 509 kts | 182° |
| 2026-05-04 09:55 | 37.67745 | -75.61352 | 43104 ft | 501 kts | 191° |
| 2026-05-04 09:55 | 37.60911 | -75.62699 | 43119 ft | 496 kts | 196° |
| 2026-05-04 09:56 | 37.54097 | -75.64151 | 43112 ft | 496 kts | 195° |
| 2026-05-04 09:56 | 37.47289 | -75.65630 | 43113 ft | 496 kts | 196° |
| 2026-05-04 09:57 | 37.40490 | -75.67090 | 43109 ft | 496 kts | 195° |
| 2026-05-04 09:57 | 37.33693 | -75.68553 | 43110 ft | 496 kts | 195° |
| 2026-05-04 09:58 | 37.26942 | -75.69999 | 43104 ft | 493 kts | 196° |
| 2026-05-04 09:58 | 37.20161 | -75.71454 | 43108 ft | 494 kts | 196° |
| 2026-05-04 10:00 | 36.97723 | -75.80129 | 43120 ft | 478 kts | 214° |
| 2026-05-04 10:00 | 36.94802 | -75.82142 | 43127 ft | 480 kts | 214° |
| 2026-05-04 10:04 | 36.54161 | -76.10154 | 43128 ft | 476 kts | 214° |
| 2026-05-04 10:04 | 36.48361 | -76.14124 | 43128 ft | 476 kts | 214° |
| 2026-05-04 10:05 | 36.42537 | -76.18105 | 43092 ft | 478 kts | 214° |
| 2026-05-04 10:05 | 36.36733 | -76.22061 | 43128 ft | 475 kts | 214° |
| 2026-05-04 10:06 | 36.30924 | -76.26020 | 43131 ft | 476 kts | 214° |
| 2026-05-04 10:06 | 36.25118 | -76.29965 | 43132 ft | 476 kts | 214° |
| 2026-05-04 10:08 | 36.04844 | -76.43696 | 43150 ft | 475 kts | 214° |
| 2026-05-04 10:08 | 35.99035 | -76.47615 | 43150 ft | 475 kts | 214° |
| 2026-05-04 10:09 | 35.93240 | -76.51516 | 43148 ft | 474 kts | 214° |
| 2026-05-04 10:09 | 35.87388 | -76.55348 | 43146 ft | 478 kts | 212° |
| 2026-05-04 10:10 | 35.81439 | -76.59002 | 43143 ft | 477 kts | 212° |
| 2026-05-04 10:10 | 35.75500 | -76.62678 | 43143 ft | 477 kts | 212° |
| 2026-05-04 10:11 | 35.69572 | -76.66322 | 43143 ft | 477 kts | 212° |
| 2026-05-04 10:11 | 35.63672 | -76.69952 | 43144 ft | 477 kts | 212° |
| 2026-05-04 10:12 | 35.57733 | -76.73595 | 43150 ft | 477 kts | 212° |
| 2026-05-04 10:12 | 35.51787 | -76.77239 | 43136 ft | 477 kts | 212° |
| 2026-05-04 10:13 | 35.45873 | -76.80855 | 43149 ft | 475 kts | 212° |
| 2026-05-04 10:13 | 35.39957 | -76.84469 | 43150 ft | 475 kts | 212° |
| 2026-05-04 10:14 | 35.34027 | -76.88083 | 43151 ft | 477 kts | 212° |
| 2026-05-04 10:16 | 35.10351 | -77.02735 | 43160 ft | 477 kts | 212° |
| 2026-05-04 10:16 | 35.04446 | -77.06435 | 43147 ft | 475 kts | 212° |
| 2026-05-04 10:17 | 34.98555 | -77.10111 | 43154 ft | 476 kts | 212° |
| 2026-05-04 10:19 | 34.75015 | -77.24745 | 43154 ft | 477 kts | 212° |
| 2026-05-04 10:19 | 34.69087 | -77.28415 | 43152 ft | 478 kts | 212° |
| 2026-05-04 10:20 | 34.63167 | -77.32074 | 43157 ft | 477 kts | 212° |
| 2026-05-04 10:20 | 34.57246 | -77.35729 | 43139 ft | 476 kts | 212° |
| 2026-05-04 10:21 | 34.51325 | -77.39347 | 43138 ft | 478 kts | 210° |
| 2026-05-04 10:21 | 34.44895 | -77.41774 | 43137 ft | 491 kts | 197° |
| 2026-05-04 10:22 | 34.34790 | -77.43756 | 43156 ft | 492 kts | 196° |
| 2026-05-04 10:23 | 34.28041 | -77.45070 | 43139 ft | 491 kts | 195° |
| 2026-05-04 10:25 | 34.01106 | -77.50316 | 43145 ft | 490 kts | 195° |
| 2026-05-04 10:25 | 33.94379 | -77.51620 | 43139 ft | 490 kts | 195° |
| 2026-05-04 10:26 | 33.87634 | -77.52925 | 43141 ft | 490 kts | 195° |
| 2026-05-04 10:26 | 33.80904 | -77.54225 | 43139 ft | 488 kts | 196° |
| 2026-05-04 10:27 | 33.74180 | -77.55525 | 43136 ft | 489 kts | 196° |
| 2026-05-04 10:27 | 33.67485 | -77.56813 | 43140 ft | 489 kts | 196° |
| 2026-05-04 10:28 | 33.60765 | -77.58106 | 43141 ft | 489 kts | 196° |
| 2026-05-04 10:28 | 33.54224 | -77.59975 | 43147 ft | 481 kts | 203° |
| 2026-05-04 10:29 | 33.47765 | -77.62235 | 43147 ft | 485 kts | 202° |
| 2026-05-04 10:29 | 33.41286 | -77.64497 | 43145 ft | 484 kts | 202° |
| 2026-05-04 10:30 | 33.34818 | -77.66761 | 43153 ft | 484 kts | 202° |
| 2026-05-04 10:30 | 33.28355 | -77.69010 | 43141 ft | 483 kts | 202° |
| 2026-05-04 10:31 | 33.21896 | -77.71263 | 43136 ft | 483 kts | 202° |
| 2026-05-04 10:32 | 33.00415 | -77.78716 | 43141 ft | 483 kts | 202° |
| 2026-05-04 10:33 | 32.92868 | -77.81325 | 43152 ft | 483 kts | 202° |
| 2026-05-04 10:33 | 32.87505 | -77.83178 | 43149 ft | 483 kts | 202° |
| 2026-05-04 10:34 | 32.81049 | -77.85404 | 43147 ft | 483 kts | 202° |
| 2026-05-04 10:34 | 32.74598 | -77.87625 | 43154 ft | 483 kts | 202° |
| 2026-05-04 10:35 | 32.68138 | -77.89846 | 43132 ft | 483 kts | 202° |
| 2026-05-04 10:35 | 32.61660 | -77.91991 | 43142 ft | 484 kts | 201° |
| 2026-05-04 10:36 | 32.55146 | -77.94069 | 43146 ft | 482 kts | 202° |
| 2026-05-04 10:36 | 32.48671 | -77.96195 | 43147 ft | 484 kts | 202° |
| 2026-05-04 10:37 | 32.42129 | -77.98294 | 43154 ft | 487 kts | 201° |
| 2026-05-04 10:37 | 32.35641 | -78.00400 | 43151 ft | 487 kts | 202° |
| 2026-05-04 10:39 | 32.11735 | -78.08093 | 43147 ft | 486 kts | 202° |
| 2026-05-04 10:40 | 32.06304 | -78.09836 | 43150 ft | 486 kts | 202° |
| 2026-05-04 10:40 | 31.99796 | -78.11921 | 43141 ft | 484 kts | 202° |
| 2026-05-04 10:41 | 31.93286 | -78.14006 | 43134 ft | 485 kts | 202° |
| 2026-05-04 10:41 | 31.86780 | -78.16083 | 43133 ft | 484 kts | 202° |
| 2026-05-04 10:42 | 31.80275 | -78.18160 | 43137 ft | 484 kts | 202° |
| 2026-05-04 10:42 | 31.73774 | -78.20230 | 43142 ft | 484 kts | 202° |
| 2026-05-04 10:43 | 31.67274 | -78.22298 | 43145 ft | 484 kts | 202° |
| 2026-05-04 10:45 | 31.41403 | -78.30590 | 43132 ft | 480 kts | 204° |
| 2026-05-04 10:45 | 31.34982 | -78.32771 | 43134 ft | 481 kts | 203° |
| 2026-05-04 10:46 | 31.28544 | -78.34901 | 43138 ft | 480 kts | 203° |
| 2026-05-04 10:46 | 31.22134 | -78.37056 | 43143 ft | 478 kts | 204° |
| 2026-05-04 10:47 | 31.15731 | -78.39185 | 43144 ft | 479 kts | 204° |
| 2026-05-04 10:47 | 31.09331 | -78.41320 | 43143 ft | 478 kts | 204° |
| 2026-05-04 10:49 | 30.83796 | -78.49793 | 43129 ft | 477 kts | 204° |
| 2026-05-04 10:50 | 30.77404 | -78.51908 | 43128 ft | 477 kts | 204° |
| 2026-05-04 10:52 | 30.51968 | -78.60292 | 43129 ft | 475 kts | 204° |
| 2026-05-04 10:52 | 30.45598 | -78.62384 | 43094 ft | 475 kts | 204° |
| 2026-05-04 10:54 | 30.20136 | -78.70722 | 43120 ft | 480 kts | 204° |
| 2026-05-04 10:56 | 29.94434 | -78.79087 | 43113 ft | 479 kts | 204° |
| 2026-05-04 10:57 | 29.88027 | -78.81164 | 43109 ft | 477 kts | 205° |
| 2026-05-04 10:57 | 29.81618 | -78.83245 | 43110 ft | 478 kts | 205° |
| 2026-05-04 10:58 | 29.75063 | -78.84735 | 43103 ft | 491 kts | 196° |
| 2026-05-04 10:58 | 29.68281 | -78.85639 | 43111 ft | 490 kts | 196° |
| 2026-05-04 10:59 | 29.61505 | -78.86563 | 43103 ft | 489 kts | 196° |
| 2026-05-04 10:59 | 29.54729 | -78.87470 | 43105 ft | 490 kts | 196° |
| 2026-05-04 11:00 | 29.47954 | -78.88385 | 43101 ft | 490 kts | 196° |
| 2026-05-04 11:02 | 29.20897 | -78.92011 | 43091 ft | 490 kts | 197° |
| 2026-05-04 11:05 | 28.70127 | -78.98767 | 43061 ft | 490 kts | 197° |
| 2026-05-04 11:06 | 28.63388 | -78.99658 | 43052 ft | 490 kts | 197° |
| 2026-05-04 11:06 | 28.56620 | -79.00553 | 43050 ft | 490 kts | 197° |
| 2026-05-04 11:08 | 28.33025 | -79.04020 | 43042 ft | 476 kts | 205° |
| 2026-05-04 11:10 | 28.11259 | -79.12089 | 43045 ft | 471 kts | 208° |
| 2026-05-04 11:12 | 27.86337 | -79.21341 | 43033 ft | 472 kts | 208° |
| 2026-05-04 11:12 | 27.80134 | -79.23634 | 43033 ft | 472 kts | 208° |
| 2026-05-04 11:13 | 27.73902 | -79.25940 | 43020 ft | 472 kts | 208° |
| 2026-05-04 11:13 | 27.67662 | -79.28243 | 43022 ft | 471 kts | 208° |
| 2026-05-04 11:14 | 27.61429 | -79.30542 | 43016 ft | 471 kts | 208° |
| 2026-05-04 11:16 | 27.36491 | -79.39713 | 43018 ft | 471 kts | 208° |
| 2026-05-04 11:16 | 27.30263 | -79.41998 | 43013 ft | 471 kts | 208° |
| 2026-05-04 11:17 | 27.24162 | -79.44208 | 43021 ft | 437 kts | 209° |
| 2026-05-04 11:19 | 27.05539 | -79.51032 | 38329 ft | 389 kts | 208° |
| 2026-05-04 11:19 | 27.02974 | -79.51969 | 37517 ft | 386 kts | 208° |
| 2026-05-04 11:19 | 27.00428 | -79.52899 | 36728 ft | 384 kts | 208° |
| 2026-05-04 11:19 | 26.97888 | -79.53824 | 35964 ft | 383 kts | 208° |
| 2026-05-04 11:20 | 26.95361 | -79.54744 | 35222 ft | 382 kts | 208° |
| 2026-05-04 11:20 | 26.92829 | -79.55667 | 34494 ft | 383 kts | 207° |
| 2026-05-04 11:20 | 26.90291 | -79.56590 | 33753 ft | 383 kts | 207° |
| 2026-05-04 11:20 | 26.87752 | -79.57511 | 32955 ft | 383 kts | 207° |
| 2026-05-04 11:22 | 26.70949 | -79.63567 | 27775 ft | 377 kts | 207° |
| 2026-05-04 11:22 | 26.67643 | -79.64756 | 26763 ft | 375 kts | 206° |
| 2026-05-04 11:23 | 26.65969 | -79.65358 | 26262 ft | 374 kts | 206° |
| 2026-05-04 11:23 | 26.62702 | -79.66533 | 25300 ft | 371 kts | 206° |
| 2026-05-04 11:24 | 26.48274 | -79.71587 | 20496 ft | 350 kts | 204° |
| 2026-05-04 11:25 | 26.46822 | -79.72239 | 19815 ft | 330 kts | 213° |
| 2026-05-04 11:25 | 26.44447 | -79.74117 | 18569 ft | 306 kts | 227° |
| 2026-05-04 11:25 | 26.43461 | -79.75297 | 18114 ft | 307 kts | 231° |
| 2026-05-04 11:26 | 26.40524 | -79.78870 | 16895 ft | 321 kts | 231° |
| 2026-05-04 11:27 | 26.31918 | -79.91852 | 12005 ft | 270 kts | 238° |
| 2026-05-04 11:28 | 26.31198 | -79.92994 | 12007 ft | 273 kts | 238° |
| 2026-05-04 11:28 | 26.30109 | -79.94724 | 11997 ft | 273 kts | 238° |
| 2026-05-04 11:28 | 26.29024 | -79.96455 | 11998 ft | 272 kts | 238° |
| 2026-05-04 11:28 | 26.27959 | -79.98150 | 11400 ft | 267 kts | 238° |
| 2026-05-04 11:29 | 26.26871 | -79.99893 | 10927 ft | 274 kts | 238° |
| 2026-05-04 11:29 | 26.25598 | -80.01482 | 10961 ft | 281 kts | 223° |
| 2026-05-04 11:29 | 26.23854 | -80.02507 | 10974 ft | 289 kts | 204° |
| 2026-05-04 11:29 | 26.21874 | -80.02997 | 11005 ft | 293 kts | 197° |
| 2026-05-04 11:31 | 26.07878 | -80.06183 | 10996 ft | 293 kts | 197° |
| 2026-05-04 11:33 | 25.93997 | -80.09762 | 9916 ft | 291 kts | 198° |
| 2026-05-04 11:33 | 25.92155 | -80.10604 | 9495 ft | 282 kts | 218° |
| 2026-05-04 11:33 | 25.90741 | -80.12073 | 9213 ft | 277 kts | 231° |
| 2026-05-04 11:34 | 25.89454 | -80.13675 | 8911 ft | 277 kts | 232° |
| 2026-05-04 11:34 | 25.88346 | -80.15391 | 8544 ft | 273 kts | 248° |
| 2026-05-04 11:34 | 25.87892 | -80.17393 | 8230 ft | 267 kts | 266° |
| 2026-05-04 11:34 | 25.87843 | -80.19460 | 7957 ft | 268 kts | 270° |
| 2026-05-04 11:35 | 25.87799 | -80.21497 | 7654 ft | 267 kts | 269° |
| 2026-05-04 11:35 | 25.87721 | -80.23556 | 7327 ft | 265 kts | 269° |
| 2026-05-04 11:35 | 25.87649 | -80.25576 | 7021 ft | 262 kts | 269° |
| 2026-05-04 11:35 | 25.87587 | -80.27605 | 6714 ft | 263 kts | 269° |
| 2026-05-04 11:36 | 25.87524 | -80.29637 | 6399 ft | 264 kts | 269° |
| 2026-05-04 11:36 | 25.87457 | -80.31743 | 6064 ft | 274 kts | 269° |
| 2026-05-04 11:36 | 25.87387 | -80.33810 | 5735 ft | 266 kts | 269° |
| 2026-05-04 11:36 | 25.87320 | -80.35881 | 5423 ft | 267 kts | 269° |
| 2026-05-04 11:37 | 25.87251 | -80.37937 | 5116 ft | 266 kts | 268° |
| 2026-05-04 11:37 | 25.86836 | -80.39901 | 4985 ft | 257 kts | 249° |
| 2026-05-04 11:37 | 25.86130 | -80.41767 | 4979 ft | 270 kts | 250° |
| 2026-05-04 11:37 | 25.85455 | -80.43698 | 5008 ft | 266 kts | 250° |
| 2026-05-04 11:38 | 25.84779 | -80.45519 | 5013 ft | 246 kts | 249° |
| 2026-05-04 11:38 | 25.84129 | -80.47262 | 4999 ft | 245 kts | 249° |
| 2026-05-04 11:38 | 25.83490 | -80.49018 | 5010 ft | 247 kts | 250° |
| 2026-05-04 11:38 | 25.82861 | -80.50758 | 5010 ft | 245 kts | 250° |
| 2026-05-04 11:39 | 25.82219 | -80.52519 | 5001 ft | 248 kts | 249° |
| 2026-05-04 11:39 | 25.81566 | -80.54293 | 5003 ft | 248 kts | 249° |
| 2026-05-04 11:40 | 25.77716 | -80.51510 | 4255 ft | 170 kts | 65° |
| 2026-05-04 11:41 | 25.78134 | -80.50405 | 4085 ft | 147 kts | 65° |
| 2026-05-04 11:41 | 25.78518 | -80.49390 | 3961 ft | 136 kts | 65° |
| 2026-05-04 11:41 | 25.78880 | -80.48434 | 3988 ft | 138 kts | 64° |
| 2026-05-04 11:41 | 25.79253 | -80.47437 | 3987 ft | 141 kts | 67° |
| 2026-05-04 11:42 | 25.79397 | -80.46296 | 4003 ft | 161 kts | 88° |
| 2026-05-04 11:42 | 25.79436 | -80.45045 | 4024 ft | 162 kts | 86° |
| 2026-05-04 11:42 | 25.79496 | -80.43802 | 4015 ft | 158 kts | 86° |
| 2026-05-04 11:42 | 25.79550 | -80.42571 | 3691 ft | 163 kts | 86° |
| 2026-05-04 11:43 | 25.79603 | -80.41313 | 3449 ft | 161 kts | 86° |
| 2026-05-04 11:43 | 25.79638 | -80.40058 | 3011 ft | 164 kts | 89° |
| 2026-05-04 11:43 | 25.79617 | -80.38786 | 2304 ft | 166 kts | 88° |
| 2026-05-04 11:43 | 25.79615 | -80.37565 | 1902 ft | 151 kts | 88° |
| 2026-05-04 11:44 | 25.79684 | -80.36482 | 1695 ft | 140 kts | 79° |
| 2026-05-04 11:44 | 25.79804 | -80.35327 | 1644 ft | 153 kts | 79° |
| 2026-05-04 11:44 | 25.79901 | -80.34105 | 1232 ft | 157 kts | 82° |
| 2026-05-04 11:44 | 25.79961 | -80.32940 | 1074 ft | 147 kts | 83° |
| 2026-05-04 11:45 | 25.80008 | -80.31793 | 732 ft | 148 kts | 85° |
| 2026-05-04 11:45 | 25.80040 | -80.30689 | 435 ft | 136 kts | 84° |
| 2026-05-04 11:45 | 25.80080 | -80.29707 | 433 ft | 123 kts | 84° |
| 2026-05-04 11:45 | 25.80088 | -80.28776 | 329 ft | 121 kts | 89° |
| 2026-05-04 11:46 | 25.80085 | -80.27798 | 386 ft | 137 kts | 85° |
| 2026-05-04 11:46 | 25.80106 | -80.26631 | 693 ft | 163 kts | 86° |
| 2026-05-04 11:46 | 25.80152 | -80.25307 | 1107 ft | 182 kts | 84° |
| 2026-05-04 11:46 | 25.80531 | -80.23999 | 1482 ft | 178 kts | 51° |
| 2026-05-04 11:47 | 25.81540 | -80.23298 | 1742 ft | 170 kts | 9° |
| 2026-05-04 11:47 | 25.82693 | -80.23365 | 2007 ft | 169 kts | 343° |
| 2026-05-04 11:47 | 25.83729 | -80.24033 | 2183 ft | 176 kts | 318° |
| 2026-05-04 11:47 | 25.84530 | -80.25113 | 2294 ft | 186 kts | 304° |
| 2026-05-04 11:48 | 25.85111 | -80.26374 | 2446 ft | 181 kts | 292° |
| 2026-05-04 11:48 | 25.85438 | -80.27692 | 2694 ft | 172 kts | 281° |
| 2026-05-04 11:48 | 25.85552 | -80.29013 | 2832 ft | 172 kts | 272° |
| 2026-05-04 11:48 | 25.85536 | -80.30344 | 3032 ft | 176 kts | 269° |
| 2026-05-04 11:49 | 25.85456 | -80.31737 | 3260 ft | 186 kts | 266° |
| 2026-05-04 11:49 | 25.85273 | -80.33059 | 4023 ft | 158 kts | 259° |
| 2026-05-04 11:49 | 25.84789 | -80.34247 | 4149 ft | 182 kts | 241° |
| 2026-05-04 11:49 | 25.83920 | -80.35323 | 4465 ft | 192 kts | 219° |
| 2026-05-04 11:50 | 25.82690 | -80.35875 | 4754 ft | 204 kts | 192° |
| 2026-05-04 11:50 | 25.81251 | -80.35690 | 4919 ft | 200 kts | 167° |
| 2026-05-04 11:50 | 25.80095 | -80.35004 | 4453 ft | 182 kts | 144° |
| 2026-05-04 11:50 | 25.79613 | -80.33765 | 3768 ft | 170 kts | 91° |
| 2026-05-04 11:51 | 25.79726 | -80.32592 | 3528 ft | 148 kts | 81° |
| 2026-05-04 11:51 | 25.79861 | -80.31422 | 2987 ft | 151 kts | 81° |
| 2026-05-04 11:51 | 25.80052 | -80.30319 | 2680 ft | 139 kts | 68° |
| 2026-05-04 11:51 | 25.80464 | -80.29371 | 2386 ft | 140 kts | 57° |
| 2026-05-04 11:52 | 25.80991 | -80.28386 | 2021 ft | 157 kts | 53° |
| 2026-05-04 11:52 | 25.81616 | -80.27366 | 1758 ft | 161 kts | 51° |
| 2026-05-04 11:52 | 25.82269 | -80.26388 | 1697 ft | 153 kts | 48° |
| 2026-05-04 11:52 | 25.82969 | -80.25541 | 1614 ft | 147 kts | 43° |
| 2026-05-04 11:53 | 25.83583 | -80.24638 | 1524 ft | 146 kts | 51° |
| 2026-05-04 11:53 | 25.83905 | -80.23573 | 1384 ft | 151 kts | 88° |
| 2026-05-04 11:53 | 25.83764 | -80.22420 | 1275 ft | 150 kts | 101° |
| 2026-05-04 11:53 | 25.83143 | -80.21498 | 1133 ft | 151 kts | 144° |
| 2026-05-04 11:55 | 25.80432 | -80.26574 | 180 ft | 111 kts | 271° |
| 2026-05-04 11:55 | 25.80395 | -80.27447 | 91 ft | 114 kts | 271° |
| 2026-05-04 11:56 | 25.80359 | -80.28324 | 29 ft | 108 kts | 271° |
| 2026-05-04 11:56 | 25.80334 | -80.29082 | 19 ft | 81 kts | 268° |
| 2026-05-04 11:56 | 25.80339 | -80.29410 | 20 ft | 19 kts | 283° |
| 2026-05-04 11:56 | 25.80393 | -80.29512 | 17 ft | 8 kts | 311° |
| 2026-05-04 11:57 | 25.80420 | -80.29559 | 18 ft | 7 kts | 291° |
| 2026-05-04 11:57 | 25.80423 | -80.29603 | 19 ft | 5 kts | 267° |
| 2026-05-04 11:57 | 25.80422 | -80.29638 | 19 ft | 4 kts | 268° |
| 2026-05-04 11:57 | 25.80421 | -80.29668 | 20 ft | 5 kts | 268° |
| 2026-05-04 11:58 | 25.80419 | -80.29702 | 20 ft | 8 kts | 267° |
| 2026-05-04 11:58 | 25.80416 | -80.29777 | 20 ft | 10 kts | 266° |
| 2026-05-04 11:58 | 25.80426 | -80.29887 | 20 ft | 11 kts | 308° |
| 2026-05-04 11:58 | 25.80494 | -80.29907 | 19 ft | 10 kts | 1° |
| 2026-05-04 11:59 | 25.80536 | -80.29879 | 21 ft | 6 kts | 78° |
| 2026-05-04 11:59 | 25.80537 | -80.29835 | 21 ft | 5 kts | 90° |
| 2026-05-04 11:59 | 25.80537 | -80.29831 | 21 ft | 0 kts | 90° |